首页
METAR-TAF:

METAR-TAF

机场 :

Ingenika Point, 不列颠哥伦比亚, 加拿大

纬度: 56-48N, 经度: 124-54W, 海拔: 680米

当前天气观测

该预报发布于12小时和15分钟前的14:11 UTC
风速7节,风向
温度 8°C
湿度 71%
气压 1013 hPa
能見度: 24.1公里
多云层高于1500英尺
阴天层高于5500英尺

METAR: CWWU 071411Z 10007KT 15SM BKN015 OVC055 08/03 A2992 RMK SC5SC3 SUN DIMLY VISBL SLP134

时间: 19:26 (02:26 UTC)

预报

该预报发布于2小时和26分钟前的00:00 UTC
预报有效从08日的 24点(UTC)到 09日的 24点(UTC)
风速8节,风向东转东南
能見度: 10公里
多云层高于4000英尺
阴天层高于5000英尺
从 08日的 0300点(UTC)
风速8节,风向东转东南
能見度: 10公里
阴天层高于1000英尺
短暂存在
从 08日的 03点(UTC)到 08日的 11点(UTC)
能見度: 4.8公里
阴天层高于700英尺
小毛毛雨
从 08日的 1100点(UTC)
风速9节,风向东南
能見度: 10公里
阴天层高于1000英尺
从 08日的 2100点(UTC)
风速11节,风向东南
能見度: 8.0公里
阴天层高于700英尺
小雨

TAF: CWWU 080000Z 0824/0924 11008KT P6SM BKN040 OVC050 FM080300 11008KT P6SM OVC010 TEMPO 0803/0811 3SM -DZ OVC007 FM081100 13009KT P6SM OVC010 FM082100 13011KT 5SM -RA OVC007 RMK FCST BASED ON AUTO OBS. RMK NXT FCST BY 080600Z

超过4000个机场的气象观测和天气预报(METAR&TAF报告)。

可查询的气象台以黄色和红色小点在地图上表示。

将鼠标移到小点上方,可查看气象台名称。

然后点击查看天气观测和预报。

如需切换地图:点击带黑十字的绿色按钮放大地图;点击带横线的绿色按钮缩小地图;或者点击绿色箭头查看邻近地区的地图。


METAR-TAF: